• Join FlightAware (Why Join?)
  • Login
  • US Flag 
04:20AM EDT


 

Airport Tracker/Info


-or-


 

Live Flight TrackerFlight Track Log ✈ FDX830 ✈ 25-May-2012 ✈ KMCO - KMEM

Flight Track Log - Related Links

Times and Time Zones

All times are in EDT time to prevent confusion due to time zone crossing. See the FDX830 flight status page for this flight to view local times or setup timezone preferences in your user account.

Time Position Orientation Groundspeed Altitude Reporting Facility
EDT Latitude Longitude Course Direction KTS MPH feet Rate Location/Type
08:33AM 28.4500 -81.3333 16° North 161 185 700  Level Orlando TRACON
08:34AM 28.5000 -81.3167 360° North 160 184 3,100 1,800 Climbing Orlando TRACON
08:35AM 28.5500 -81.3167 300° West 219 252 4,400 2,040 Climbing Orlando TRACON
08:36AM 28.5833 -81.3833 270° West 274 315 7,200 1,680 Climbing Orlando TRACON
08:37AM 28.5833 -81.4667 249° West 287 330 8,000 1,140 Climbing Orlando TRACON
08:38AM 28.5500 -81.5667 246° West 291 335 9,700 2,400 Climbing Orlando TRACON
08:39AM 28.5167 -81.6500 257° West 271 312 13,100 2,400 Climbing Orlando TRACON
08:41AM 28.4875 -81.7919 268° West 279 321 16,300 1,740 Climbing Jacksonville Center
08:42AM 28.4842 -81.8889 270° West 291 335 17,900 1,560 Climbing Jacksonville Center
08:43AM 28.4847 -81.9881 272° West 303 349 19,500 1,560 Climbing Jacksonville Center
08:44AM 28.4875 -82.0825 270° West 317 365 21,100 1,320 Climbing Jacksonville Center
08:45AM 28.4881 -82.1886 269° West 331 381 22,200 960 Climbing Jacksonville Center
08:46AM 28.4867 -82.3069 278° West 355 409 23,100 900 Climbing Jacksonville Center
08:47AM 28.5017 -82.4272 322° Northwest 372 428 24,000 1,080 Climbing Jacksonville Center
08:48AM 28.5917 -82.5072 326° Northwest 361 415 25,300 1,380 Climbing Jacksonville Center
08:49AM 28.6881 -82.5803 325° Northwest 382 440 26,800 1,260 Climbing Jacksonville Center
08:50AM 28.7819 -82.6556 325° Northwest 400 460 27,900 1,260 Climbing Jacksonville Center
08:51AM 28.8803 -82.7336 324° Northwest 413 475 29,400 1,200 Climbing Jacksonville Center
08:52AM 28.9764 -82.8142 325° Northwest 425 489 30,400 900 Climbing Jacksonville Center
08:53AM 29.0767 -82.8950 324° Northwest 431 496 31,300 900 Climbing Jacksonville Center
08:54AM 29.1767 -82.9781 324° Northwest 437 503 32,300 1,020 Climbing Jacksonville Center
08:55AM 29.2769 -83.0617 324° Northwest 437 503 33,400 840 Climbing Jacksonville Center
08:56AM 29.3789 -83.1453 324° Northwest 442 509 34,000 720 Climbing Jacksonville Center
08:57AM 29.4914 -83.2386 324° Northwest 452 520 34,900 720 Climbing Jacksonville Center
08:58AM 29.5853 -83.3178 324° Northwest 457 526 35,500 660 Climbing Jacksonville Center
08:59AM 29.6872 -83.4017 324° Northwest 452 520 36,300 720 Climbing Jacksonville Center
09:00AM 29.7911 -83.4886 324° Northwest 457 526 37,000 540 Climbing Jacksonville Center
09:01AM 29.9014 -83.5803 324° Northwest 457 526 37,500 420 Climbing Jacksonville Center
09:02AM 30.0053 -83.6672 323° Northwest 457 526 37,900 240 Climbing Jacksonville Center
09:03AM 30.1050 -83.7544 324° Northwest 457 526 38,000  Climbing Jacksonville Center
09:04AM 30.2067 -83.8397 325° Northwest 457 526 38,000  Level Jacksonville Center
09:05AM 30.3103 -83.9247 324° Northwest 457 526 38,000  Level Jacksonville Center
09:06AM 30.4100 -84.0078 323° Northwest 457 526 38,000  Level Jacksonville Center
09:07AM 30.5094 -84.0933 324° Northwest 457 526 38,000  Level Jacksonville Center
09:08AM 30.6067 -84.1742 324° Northwest 452 520 38,000  Level Jacksonville Center
09:09AM 30.7103 -84.2625 324° Northwest 452 520 38,000  Level Jacksonville Center
09:10AM 30.8136 -84.3511 323° Northwest 458 527 38,000  Level Jacksonville Center
09:11AM 30.9128 -84.4397 322° Northwest 458 527 38,000  Level Jacksonville Center
09:12AM 31.0097 -84.5286 318° Northwest 453 521 38,100  Climbing Jacksonville Center
09:13AM 31.1044 -84.6275 318° Northwest 453 521 38,000 -60 Descending Jacksonville Center
09:14AM 31.1992 -84.7264 318° Northwest 453 521 38,000  Level Jacksonville Center
09:15AM 31.3533 -84.8875 317° Northwest 463 533 38,000  Level Atlanta Center
09:16AM 31.4444 -84.9858 318° Northwest 456 525 38,000  Level Atlanta Center
09:17AM 31.5378 -85.0842 321° Northwest 456 525 38,000  Level Atlanta Center
09:18AM 31.6247 -85.1681 317° Northwest 456 525 38,100  Climbing Atlanta Center
09:19AM 31.7175 -85.2692 319° Northwest 456 525 38,000 -60 Descending Atlanta Center
09:20AM 31.8208 -85.3758 317° Northwest 456 525 38,000  Level Atlanta Center
09:21AM 31.9094 -85.4725 318° Northwest 451 519 38,000  Level Atlanta Center
09:22AM 32.0125 -85.5819 318° Northwest 451 519 38,000  Level Atlanta Center
09:23AM 32.1050 -85.6817 316° Northwest 451 519 38,000  Level Atlanta Center
09:24AM 32.2017 -85.7914 317° Northwest 445 512 38,000  Level Atlanta Center
09:25AM 32.2942 -85.8939 320° Northwest 450 518 38,000  Level Atlanta Center
09:26AM 32.3886 -85.9894 316° Northwest 450 518 38,000  Level Atlanta Center
09:27AM 32.4789 -86.0922 320° Northwest 450 518 38,100  Climbing Atlanta Center
09:28AM 32.5775 -86.1908 317° Northwest 467 537 38,100 -60 Level Atlanta Center
09:29AM 32.6694 -86.2917 316° Northwest 460 529 38,000 -60 Descending Atlanta Center
09:30AM 32.7594 -86.3953 319° Northwest 455 524 38,000  Level Atlanta Center
09:31AM 32.8556 -86.4942 315° West 450 518 38,000  Level Atlanta Center
09:32AM 32.9411 -86.5958 316° Northwest 445 512 38,000  Level Atlanta Center
09:33AM 33.0328 -86.7000 318° Northwest 445 512 38,000  Level Atlanta Center
09:34AM 33.1247 -86.7994 318° Northwest 445 512 38,000  Level Atlanta Center
09:35AM 33.2164 -86.8967 315° West 445 512 38,000  Level Atlanta Center
09:36AM 33.2956 -86.9914 318° Northwest 445 512 38,000  Level Atlanta Center
09:37AM 33.3911 -87.0942 316° Northwest 432 497 38,000  Level Atlanta Center
09:38AM 33.4783 -87.1942 317° Northwest 432 497 38,000  Level Atlanta Center
09:41AM 33.6722 -87.4119 315° West 438 504 38,000  Level Memphis Center
09:42AM 33.7581 -87.5139 319° Northwest 432 497 38,000  Level Memphis Center
09:43AM 33.8522 -87.6108 315° West 432 497 38,100  Climbing Memphis Center
09:44AM 33.9378 -87.7133 317° Northwest 432 497 38,100 -60 Level Memphis Center
09:45AM 34.0297 -87.8158 316° Northwest 437 503 38,000 -900 Descending Memphis Center
09:46AM 34.1175 -87.9186 316° Northwest 437 503 36,400 -2,400 Descending Memphis Center
09:47AM 34.2050 -88.0214 300° West 437 503 33,300 -3,060 Descending Memphis Center
09:48AM 34.2722 -88.1606 300° West 437 503 30,300 -2,580 Descending Memphis Center
09:49AM 34.3283 -88.2772 301° West 437 503 28,200 -2,220 Descending Memphis Center
09:50AM 34.3867 -88.3939 301° West 424 488 25,900 -1,860 Descending Memphis Center
09:51AM 34.4428 -88.5061 302° West 408 470 24,500 -1,140 Descending Memphis Center
09:52AM 34.5006 -88.6183 300° West 403 464 23,700 -1,440 Descending Memphis Center
09:53AM 34.5544 -88.7331 301° West 398 458 21,700 -2,100 Descending Memphis Center
09:54AM 34.6122 -88.8481 292° West 385 443 19,500 -2,100 Descending Memphis Center
09:55AM 34.6511 -88.9661 286° West 371 427 17,500 -2,100 Descending Memphis Center
09:56AM 34.6772 -89.0792 286° West 363 418 15,400 -1,860 Descending Memphis Center
09:57AM 34.7014 -89.1825 285° West 354 407 13,800 -1,740 Descending Memphis Center
09:58AM 34.7253 -89.2883 284° West 346 398 12,000 -1,020 Descending Memphis Center
09:59AM 34.7469 -89.3942 286° West 329 379 11,800 -480 Descending Memphis Center
10:00AM 34.7686 -89.4875 301° West 308 354 11,100 -780 Descending Memphis Center
10:01AM 34.8067 -89.5656 302° West 281 323 10,300 -840 Descending Memphis Center
10:02AM 34.8467 -89.6436 302° West 274 315 9,500 -660 Descending Memphis Center
10:03AM 34.8867 -89.7217 301° West 274 315 9,000 -300 Descending Memphis Center
10:04AM 34.9289 -89.8075 328° Northwest 274 315 9,000  Level Memphis Center
10:05AM 34.9856 -89.8503 353° North 239 275 9,000 -600 Level Memphis Center
10:06AM 35.0544 -89.8600 355° North 239 275 7,800 -1,200 Descending Memphis Center
10:07AM 35.1211 -89.8672 360° North 246 283 6,600 -1,320 Descending Memphis Center
10:08AM 35.1919 -89.8667 360° North 246 283 5,200 -1,260 Descending Memphis Center
10:09AM 35.2672 -89.8661 283° West 246 283 4,100 -720 Descending Memphis Center
10:11AM 35.2833 -89.9500 195° South 185 213 3,000 -360 Descending Anchorage Center
10:12AM 35.2333 -89.9667 195° South 172 198 3,000  Level Anchorage Center
10:13AM 35.1833 -89.9833 180° South 180 207 3,000 -480 Level Anchorage Center
10:14AM 35.1333 -89.9833 158° South 175 201 2,000 -1,080 Descending Anchorage Center
10:15AM 35.1000 -89.9667 180° South 146 168 1,000 -1,080 Descending Anchorage Center
10:23AM 35.0333 -89.9667 318° Northwest  Level FlightAware Approximate
10:24AM 35.1137 -90.0553 138° Southeast  Level Estimated
10:25AM 35.0333 -89.9667 318° Northwest  Level FlightAware Approximate
10:26AM 35.1137 -90.0553 318° Northwest  Level Estimated